Time;durP1;ratioP1;P1;durP2;ratioP2;P2;SDS_P1;SDS_P2;PMS_P1;PMS_P2;Temp;Humidity;BMP_temperature;BMP_pressure;BME280_temperature;BME280_humidity;BME280_pressure;Samples;Min_cycle;Max_cycle;Signal;HPM_P1;HPM_P2
2022/02/05 00:02:12;;;;;;;13.60;8.90;;;;;;;20.18;29.76;100974.23;103344;1319;75306;-84
2022/02/05 00:04:52;;;;;;;13.00;8.60;;;;;;;20.19;29.84;100975.42;103661;1319;61315;-82
2022/02/05 00:07:56;;;;;;;12.70;8.80;;;;;;;20.19;29.73;100977.73;103393;1319;61339;-83
2022/02/05 00:39:55;;;;;;;12.70;8.30;;;;;;;20.18;29.74;100979.41;103202;1318;76333;-81
2022/02/05 00:42:58;;;;;;;;;;;;;;;;;;;;;
2022/02/05 00:45:33;;;;;;;13.50;8.30;;;;;;;20.18;29.74;100969.77;102813;1325;61381;-84
2022/02/05 00:48:31;;;;;;;13.20;8.50;;;;;;;20.19;29.70;100963.12;102809;1325;73716;-88
2022/02/05 00:51:33;;;;;;;12.40;8.20;;;;;;;20.19;29.72;100960.45;102788;1325;75901;-82
2022/02/05 00:54:46;;;;;;;13.90;9.10;;;;;;;20.18;29.66;100954.39;103077;1322;61302;-83
2022/02/05 01:00:36;;;;;;;14.40;8.70;;;;;;;20.19;29.78;100948.09;102877;1319;73053;-78
2022/02/05 01:03:46;;;;;;;13.70;9.50;;;;;;;20.19;29.71;100947.37;103270;1321;76058;-84
2022/02/05 01:07:01;;;;;;;12.30;8.90;;;;;;;20.18;29.75;100943.48;103393;1319;61360;-83
2022/02/05 01:09:44;;;;;;;;;;;;;;;;;;;;;
2022/02/05 01:12:38;;;;;;;16.00;8.90;;;;;;;20.20;29.72;100945.01;103028;1322;74362;-86
2022/02/05 01:15:30;;;;;;;13.70;8.90;;;;;;;20.19;29.67;100940.94;102995;1323;75568;-82
2022/02/05 01:18:19;;;;;;;12.90;8.60;;;;;;;20.19;29.77;100935.05;103024;1323;61364;-87
2022/02/05 01:21:30;;;;;;;12.20;8.70;;;;;;;20.20;29.69;100933.77;103659;1319;61205;-81
2022/02/05 01:24:23;;;;;;;13.60;9.10;;;;;;;20.20;29.71;100931.23;103648;1319;72732;-81
2022/02/05 01:27:32;;;;;;;12.90;9.00;;;;;;;20.20;29.77;100929.80;102747;1325;74938;-85
2022/02/05 01:30:42;;;;;;;13.40;8.70;;;;;;;20.19;29.71;100930.20;102757;1326;61430;-88
2022/02/05 01:50:52;;;;;;;12.20;8.40;;;;;;;20.19;29.73;100921.11;102510;1328;74788;-85
2022/02/05 01:54:11;;;;;;;;;;;;;;;;;;;;;
2022/02/05 01:57:26;;;;;;;12.00;8.00;;;;;;;20.20;29.77;100915.18;102403;1330;61336;-84
2022/02/05 02:11:22;;;;;;;10.10;7.00;;;;;;;20.19;29.75;100907.17;102536;1328;61328;-81
2022/02/05 02:29:10;;;;;;;12.40;7.40;;;;;;;20.20;29.81;100899.24;102250;1335;61211;-81
2022/02/05 02:31:32;;;;;;;;;;;;;;;20.21;29.77;100897.41;102083;1335;74189;-82
2022/02/05 02:35:07;;;;;;;11.70;7.30;;;;;;;20.19;29.79;100898.95;102256;1334;74749;-85
2022/02/05 02:38:10;;;;;;;10.50;6.80;;;;;;;20.20;29.78;100891.74;102280;1334;61511;-84
2022/02/05 02:41:32;;;;;;;12.30;7.50;;;;;;;20.20;29.78;100892.45;102246;1334;61587;-86
2022/02/05 02:44:35;;;;;;;;;;;;;;;;;;;;;
2022/02/05 02:47:37;;;;;;;12.10;7.70;;;;;;;20.21;29.77;100887.58;102124;1335;74895;-82
2022/02/05 02:57:52;;;;;;;;;;;;;;;;;;;;;
2022/02/05 03:01:07;;;;;;;11.30;7.60;;;;;;;20.22;29.74;100890.21;101993;1335;75179;-82
2022/02/05 03:03:59;;;;;;;11.60;8.00;;;;;;;20.21;29.68;100887.59;101811;1340;61541;-83
2022/02/05 03:07:33;;;;;;;11.20;7.90;;;;;;;20.21;29.69;100887.73;101625;1345;61286;-84
2022/02/05 03:10:14;;;;;;;;;;;;;;;20.21;29.69;100886.70;101388;1351;71529;-84
2022/02/05 03:13:33;;;;;;;;;;;;;;;;;;;;;
2022/02/05 03:16:20;;;;;;;;;;;;;;;;;;;;;
2022/02/05 03:19:29;;;;;;;11.40;7.90;;;;;;;20.20;29.69;100895.30;100765;1357;61697;-80
2022/02/05 03:22:38;;;;;;;13.30;8.60;;;;;;;20.20;29.73;100890.51;99950;1367;71785;-78
2022/02/05 03:25:48;;;;;;;11.50;8.10;;;;;;;20.21;29.79;100888.11;100135;1364;75097;-82
2022/02/05 03:28:54;;;;;;;13.30;8.40;;;;;;;20.21;29.94;100879.88;100205;1363;61315;-80
2022/02/05 03:32:02;;;;;;;12.60;8.20;;;;;;;20.20;29.84;100877.42;100409;1357;61405;-83
2022/02/05 03:34:35;;;;;;;12.20;8.40;;;;;;;20.21;29.82;100872.04;100887;1352;73794;-83
2022/02/05 03:44:05;;;;;;;14.10;8.40;;;;;;;20.21;29.85;100880.39;101113;1349;61233;-84
2022/02/05 03:46:59;;;;;;;11.60;7.40;;;;;;;20.21;29.81;100878.98;101475;1346;72985;-94
2022/02/05 03:50:13;;;;;;;11.30;8.00;;;;;;;20.21;29.84;100879.15;101737;1339;72551;-84
2022/02/05 03:53:18;;;;;;;13.00;7.20;;;;;;;20.22;29.80;100877.13;101775;1338;61780;-86
2022/02/05 03:56:33;;;;;;;12.70;8.00;;;;;;;20.22;29.75;100879.48;101922;1340;63287;-81
2022/02/05 04:00:06;;;;;;;;;;;;;;;;;;;;;
2022/02/05 04:03:02;;;;;;;;;;;;;;;;;;;;;
2022/02/05 04:06:28;;;;;;;11.80;7.70;;;;;;;20.22;29.75;100877.14;101650;1345;61545;-83
2022/02/05 04:09:59;;;;;;;13.00;8.40;;;;;;;20.22;29.85;100882.30;101632;1347;61406;-81
2022/02/05 04:16:09;;;;;;;10.00;7.20;;;;;;;20.22;29.81;100879.66;101622;1345;73594;-79
2022/02/05 04:22:43;;;;;;;;;;;;;;;;;;;;;
2022/02/05 04:26:09;;;;;;;;;;;;;;;;;;;;;
2022/02/05 04:29:07;;;;;;;10.20;7.00;;;;;;;20.23;29.78;100894.25;101601;1346;74962;-81
2022/02/05 04:32:13;;;;;;;;;;;;;;;;;;;;;
2022/02/05 04:35:50;;;;;;;13.50;7.80;;;;;;;20.23;29.80;100895.13;101041;1355;62210;-83
2022/02/05 04:38:59;;;;;;;10.90;7.50;;;;;;;20.24;29.71;100900.08;101088;1351;72833;-78
2022/02/05 04:52:19;;;;;;;10.40;6.80;;;;;;;20.24;29.78;100922.58;101456;1349;72833;-83
2022/02/05 05:19:46;;;;;;;10.70;6.70;;;;;;;20.24;29.78;100898.29;101384;1352;73995;-82
2022/02/05 05:22:45;;;;;;;11.00;6.60;;;;;;;20.24;29.67;100899.52;101203;1352;74828;-82
2022/02/05 05:26:00;;;;;;;;;;;;;;;;;;;;;
2022/02/05 05:28:52;;;;;;;10.80;7.60;;;;;;;20.24;29.69;100901.86;101453;1349;63226;-85
2022/02/05 05:32:21;;;;;;;;;;;;;;;;;;;;;
2022/02/05 05:35:36;;;;;;;11.50;7.00;;;;;;;20.24;29.61;100899.34;101434;1352;75740;-82
2022/02/05 05:39:01;;;;;;;;;;;;;;;;;;;;;
2022/02/05 05:41:59;;;;;;;11.40;7.40;;;;;;;20.24;29.71;100909.33;100661;1355;61369;-86
2022/02/05 05:45:40;;;;;;;10.50;7.10;;;;;;;20.24;29.88;100910.77;101222;1341;74394;-83
2022/02/05 05:49:09;;;;;;;10.70;7.70;;;;;;;20.25;29.71;100911.45;101474;1350;74892;-84
2022/02/05 05:51:48;;;;;;;12.80;7.50;;;;;;;20.25;29.69;100905.89;101599;1346;61280;-82
2022/02/05 05:55:19;;;;;;;;;;;;;;;;;;;;;
2022/02/05 05:58:23;;;;;;;11.40;7.30;;;;;;;20.23;29.68;100907.61;101537;1349;71711;-83
2022/02/05 06:01:10;;;;;;;11.40;8.20;;;;;;;20.25;29.72;100907.50;101488;1349;74857;-81
2022/02/05 06:04:12;;;;;;;13.30;8.30;;;;;;;20.25;29.68;100902.83;101589;1346;61572;-84
2022/02/05 06:07:18;;;;;;;11.70;8.20;;;;;;;20.24;29.66;100903.41;101778;1340;61384;-84
2022/02/05 06:10:34;;;;;;;11.80;8.40;;;;;;;20.24;29.69;100908.95;101768;1340;71921;-79
2022/02/05 06:13:27;;;;;;;11.60;8.20;;;;;;;20.25;29.61;100913.74;102015;1337;75908;-81
2022/02/05 06:17:05;;;;;;;12.60;8.30;;;;;;;20.25;29.63;100914.65;102289;1333;61283;-84
2022/02/05 06:19:42;;;;;;;12.90;8.70;;;;;;;20.25;29.60;100911.22;102202;1334;61345;-83
2022/02/05 06:22:58;;;;;;;12.60;8.40;;;;;;;20.26;29.67;100915.13;102241;1333;71659;-85
2022/02/05 06:26:27;;;;;;;12.50;8.20;;;;;;;20.27;29.68;100912.39;102941;1321;72672;-79
2022/02/05 06:29:33;;;;;;;13.70;9.00;;;;;;;20.26;29.67;100909.72;103301;1322;61655;-89
2022/02/05 06:32:30;;;;;;;14.20;9.70;;;;;;;20.27;29.67;100912.74;102485;1331;61310;-85
2022/02/05 06:35:46;;;;;;;13.50;8.70;;;;;;;20.27;29.64;100915.94;102153;1335;71543;-81
2022/02/05 06:38:34;;;;;;;13.10;8.90;;;;;;;20.27;29.52;100925.05;102200;1335;76105;-82
2022/02/05 06:41:43;;;;;;;15.10;8.50;;;;;;;20.28;29.68;100933.40;102168;1335;62178;-89
2022/02/05 06:44:58;;;;;;;15.60;9.80;;;;;;;20.28;29.59;100932.30;102318;1335;61257;-87
2022/02/05 06:48:14;;;;;;;;;;;;;;;;;;;;;
2022/02/05 06:51:30;;;;;;;16.30;9.90;;;;;;;20.29;29.54;100932.96;100973;1356;74784;-83
2022/02/05 06:54:07;;;;;;;12.20;8.50;;;;;;;20.29;29.62;100927.77;100290;1361;61737;-81
2022/02/05 06:57:57;;;;;;;12.90;8.80;;;;;;;20.29;29.66;100927.42;100429;1358;61354;-83
2022/02/05 07:00:41;;;;;;;11.00;7.80;;;;;;;20.29;29.55;100923.14;100569;1358;71722;-79
2022/02/05 07:03:36;;;;;;;12.20;8.30;;;;;;;20.30;29.52;100922.38;100500;1358;74946;-86
2022/02/05 07:06:38;;;;;;;14.30;8.60;;;;;;;20.30;29.64;100919.67;100565;1357;61601;-84
2022/02/05 07:09:46;;;;;;;11.30;8.10;;;;;;;20.30;29.67;100921.85;101009;1351;61503;-85
2022/02/05 07:13:00;;;;;;;13.80;8.50;;;;;;;20.31;29.47;100915.17;101568;1340;72929;-81
2022/02/05 07:16:32;;;;;;;14.20;9.10;;;;;;;20.31;29.60;100916.91;101701;1343;74928;-81
2022/02/05 07:22:29;;;;;;;12.70;8.30;;;;;;;20.30;29.60;100915.20;101463;1351;61138;-85
2022/02/05 07:32:02;;;;;;;12.60;8.00;;;;;;;20.32;29.59;100926.36;102338;1328;61442;-84
2022/02/05 07:35:22;;;;;;;14.30;8.20;;;;;;;20.32;29.57;100934.04;102553;1329;61307;-84
2022/02/05 07:38:09;;;;;;;12.70;8.10;;;;;;;20.32;29.62;100936.17;102547;1328;72757;-82
2022/02/05 07:41:05;;;;;;;14.20;8.60;;;;;;;20.33;29.60;100934.16;102049;1337;75911;-80
2022/02/05 07:43:54;;;;;;;13.90;8.30;;;;;;;20.33;29.65;100931.29;101835;1340;61287;-82
2022/02/05 07:47:32;;;;;;;;;;;;;;;;;;;;;
2022/02/05 07:50:19;;;;;;;;;;;;;;;;;;;;;
2022/02/05 07:53:10;;;;;;;11.60;8.40;;;;;;;20.32;29.70;100928.68;101403;1349;74984;-88
2022/02/05 07:56:17;;;;;;;14.60;8.00;;;;;;;20.32;29.53;100925.80;101171;1354;61233;-81
2022/02/05 07:59:23;;;;;;;12.00;8.30;;;;;;;20.32;29.69;100931.91;101394;1345;61243;-88
2022/02/05 08:02:12;;;;;;;12.70;8.30;;;;;;;20.33;29.68;100935.41;101702;1345;74180;-82
2022/02/05 08:05:38;;;;;;;12.50;8.10;;;;;;;20.33;29.54;100942.00;101698;1345;73552;-87
2022/02/05 08:08:33;;;;;;;12.80;7.60;;;;;;;20.34;29.56;100948.79;101504;1345;61375;-83
2022/02/05 08:11:58;;;;;;;12.50;8.50;;;;;;;20.34;29.60;100944.98;101717;1344;62343;-86
2022/02/05 08:15:15;;;;;;;;;;;;;;;;;;;;;
2022/02/05 08:18:30;;;;;;;12.20;8.90;;;;;;;20.35;29.63;100935.84;101768;1340;73669;-83
2022/02/05 08:21:47;;;;;;;12.70;8.30;;;;;;;20.35;29.69;100934.38;102273;1331;61288;-85
2022/02/05 08:24:47;;;;;;;;;;;;;;;;;;;;;
2022/02/05 08:27:53;;;;;;;13.00;8.30;;;;;;;20.36;29.66;100929.29;102690;1325;73757;-83
2022/02/05 08:30:32;;;;;;;11.50;8.00;;;;;;;20.36;29.69;100923.54;102579;1328;75943;-82
2022/02/05 08:33:59;;;;;;;13.10;8.70;;;;;;;20.37;29.71;100925.08;102648;1328;61298;-81
2022/02/05 08:36:50;;;;;;;;;;;;;;;20.38;29.71;100929.89;102054;1337;61386;-87
2022/02/05 08:40:16;;;;;;;10.90;7.50;;;;;;;20.36;29.69;100931.05;101761;1343;73756;-83
2022/02/05 08:43:32;;;;;;;13.60;9.00;;;;;;;20.37;29.68;100930.08;101748;1343;74941;-82
2022/02/05 08:46:30;;;;;;;12.70;8.40;;;;;;;20.38;29.58;100929.33;101621;1346;61690;-85
2022/02/05 08:49:47;;;;;;;;;;;;;;;;;;;;;
2022/02/05 08:52:55;;;;;;;11.70;7.60;;;;;;;20.37;29.66;100916.70;101526;1348;71655;-81
2022/02/05 08:55:40;;;;;;;13.30;8.20;;;;;;;20.39;29.59;100917.15;101553;1348;74959;-82
2022/02/05 08:58:55;;;;;;;;;;;;;;;;;;;;;
2022/02/05 09:03:08;;;;;;;13.50;8.40;;;;;;;20.40;29.60;100917.78;101308;1348;61435;-83
2022/02/05 09:09:05;;;;;;;;;;;;;;;;;;;;;
2022/02/05 09:15:51;;;;;;;12.20;7.80;;;;;;;20.42;29.83;100895.11;100626;1357;61634;-84
2022/02/05 09:19:00;;;;;;;11.20;8.30;;;;;;;20.42;29.96;100893.83;100486;1356;71788;-82
2022/02/05 09:22:11;;;;;;;13.80;8.10;;;;;;;20.43;29.74;100893.05;100173;1363;74894;-82
2022/02/05 09:25:14;;;;;;;11.20;7.80;;;;;;;20.44;29.89;100893.18;100162;1363;61346;-85
2022/02/05 09:28:10;;;;;;;11.60;8.10;;;;;;;20.44;29.80;100890.86;100258;1360;61522;-82
2022/02/05 09:34:17;;;;;;;12.30;7.70;;;;;;;20.45;29.85;100880.96;100222;1360;75978;-83
2022/02/05 09:37:10;;;;;;;11.60;7.90;;;;;;;20.47;29.92;100880.52;100253;1360;61302;-86
2022/02/05 09:40:39;;;;;;;;;;;;;;;;;;;;;
2022/02/05 09:43:57;;;;;;;11.70;7.90;;;;;;;20.46;29.76;100869.11;100720;1357;73740;-80
2022/02/05 09:46:47;;;;;;;10.70;7.80;;;;;;;20.47;29.82;100864.05;100730;1357;74660;-85
2022/02/05 09:49:55;;;;;;;;;;;;;;;;;;;;;
2022/02/05 09:53:01;;;;;;;11.00;6.80;;;;;;;20.48;29.87;100865.77;101530;1345;61407;-85
2022/02/05 09:56:14;;;;;;;11.00;7.20;;;;;;;20.49;29.96;100865.89;101598;1340;71846;-84
2022/02/05 09:59:03;;;;;;;12.80;7.50;;;;;;;20.49;29.84;100863.58;101952;1334;74812;-82
2022/02/05 10:01:49;;;;;;;9.30;7.00;;;;;;;20.49;29.83;100860.84;102122;1331;61631;-87
2022/02/05 10:05:03;;;;;;;;;;;;;;;;;;;;;
2022/02/05 10:08:37;;;;;;;;;;;;;;;;;;;;;
2022/02/05 10:11:52;;;;;;;10.10;7.00;;;;;;;20.49;29.94;100851.23;102487;1331;75929;-85
2022/02/05 10:14:49;;;;;;;11.90;7.20;;;;;;;20.49;29.89;100847.98;101860;1340;61673;-81
2022/02/05 10:18:02;;;;;;;10.90;6.70;;;;;;;20.50;29.88;100848.30;97907;1340;5552857;-87
2022/02/05 10:21:05;;;;;;;12.30;6.60;;;;;;;20.50;29.83;100846.67;101760;1340;61213;-86
2022/02/05 10:23:55;;;;;;;11.00;7.60;;;;;;;20.50;29.87;100836.63;101784;1337;73020;-86
2022/02/05 10:27:12;;;;;;;;;;;;;;;;;;;;;
2022/02/05 10:30:48;;;;;;;11.00;6.70;;;;;;;20.50;29.87;100821.66;101864;1340;61257;-87
2022/02/05 10:33:48;;;;;;;;;;;;;;;;;;;;;
2022/02/05 10:37:21;;;;;;;9.60;7.00;;;;;;;20.50;29.97;100818.80;101461;1345;72721;-86
2022/02/05 10:40:28;;;;;;;9.50;6.50;;;;;;;20.51;29.94;100809.80;101749;1342;75925;-83
2022/02/05 10:43:31;;;;;;;9.20;6.70;;;;;;;20.51;30.02;100795.81;101797;1342;61260;-82
2022/02/05 10:47:09;;;;;;;8.70;6.50;;;;;;;20.52;29.92;100794.71;101999;1334;61212;-85
2022/02/05 10:50:13;;;;;;;9.80;6.40;;;;;;;20.52;29.99;100790.58;102225;1332;70653;-86
2022/02/05 10:53:04;;;;;;;9.60;7.00;;;;;;;20.52;29.99;100788.74;102054;1334;74937;-82
2022/02/05 11:09:20;;;;;;;10.40;6.60;;;;;;;20.53;30.08;100787.79;103001;1319;61323;-84
2022/02/05 11:19:01;;;;;;;11.00;6.80;;;;;;;20.54;30.13;100788.65;102398;1332;75384;-82
2022/02/05 11:22:34;;;;;;;9.20;6.20;;;;;;;20.54;30.19;100786.46;102324;1334;61445;-85
2022/02/05 11:26:01;;;;;;;;;;;;;;;;;;;;;
2022/02/05 11:29:07;;;;;;;9.20;6.30;;;;;;;20.55;30.14;100777.15;101767;1342;73453;-79
2022/02/05 11:32:50;;;;;;;7.80;5.80;;;;;;;20.55;30.24;100766.42;101595;1347;76427;-82
2022/02/05 11:36:39;;;;;;;9.20;6.20;;;;;;;20.55;30.27;100765.18;101217;1353;61239;-82
2022/02/05 11:39:06;;;;;;;9.70;5.90;;;;;;;20.55;30.17;100759.80;101032;1353;61310;-81
2022/02/05 11:42:03;;;;;;;7.80;6.10;;;;;;;20.56;30.28;100757.95;101263;1352;74089;-83
2022/02/05 11:45:06;;;;;;;10.50;6.60;;;;;;;20.56;30.33;100748.61;100909;1355;74967;-89
2022/02/05 11:49:16;;;;;;;8.10;5.40;;;;;;;20.56;30.32;100747.17;99716;1370;61614;-81
2022/02/05 11:52:03;;;;;;;9.90;6.30;;;;;;;20.57;30.38;100744.29;100215;1363;61799;-80
2022/02/05 11:55:20;;;;;;;9.10;6.00;;;;;;;20.57;30.31;100737.29;99901;1367;73872;-80
2022/02/05 11:58:23;;;;;;;9.00;5.90;;;;;;;20.58;30.35;100745.30;100181;1363;74854;-87
2022/02/05 12:01:36;;;;;;;9.80;6.20;;;;;;;20.58;30.35;100747.59;99854;1366;63017;-81
2022/02/05 12:04:15;;;;;;;8.80;6.00;;;;;;;20.58;30.26;100756.18;99905;1367;62310;-84
2022/02/05 12:07:17;;;;;;;9.60;6.10;;;;;;;20.59;30.50;100750.21;100190;1361;72955;-83
2022/02/05 12:10:49;;;;;;;;;;;;;;;;;;;;;
2022/02/05 12:13:38;;;;;;;8.70;5.70;;;;;;;20.59;30.27;100748.61;101522;1348;61684;-85
2022/02/05 12:17:12;;;;;;;;;;;;;;;;;;;;;
2022/02/05 12:20:24;;;;;;;7.90;5.60;;;;;;;20.59;30.30;100738.92;101540;1348;71601;-82
2022/02/05 12:23:52;;;;;;;10.00;5.90;;;;;;;20.60;30.29;100741.21;101614;1346;75909;-84
2022/02/05 12:26:46;;;;;;;9.30;6.00;;;;;;;20.59;30.37;100737.33;101986;1337;61173;-82
2022/02/05 12:30:12;;;;;;;9.20;6.40;;;;;;;20.59;30.42;100738.79;101746;1342;61254;-84
2022/02/05 12:33:18;;;;;;;7.90;5.30;;;;;;;20.59;30.41;100742.54;101753;1342;73907;-83
2022/02/05 12:36:32;;;;;;;9.10;5.90;;;;;;;20.59;30.45;100744.49;101820;1340;75109;-84
2022/02/05 12:39:45;;;;;;;9.10;5.20;;;;;;;20.59;30.44;100746.30;102062;1337;61377;-85
2022/02/05 12:42:52;;;;;;;8.60;5.50;;;;;;;20.59;30.46;100746.23;102183;1334;61527;-88
2022/02/05 12:46:06;;;;;;;10.20;6.10;;;;;;;20.60;30.46;100748.14;102205;1334;73346;-84
2022/02/05 12:49:17;;;;;;;;;;;;;;;;;;;;;
2022/02/05 12:52:13;;;;;;;8.90;6.20;;;;;;;20.60;30.47;100747.06;102085;1335;61725;-83
2022/02/05 12:55:24;;;;;;;;;;;;;;;;;;;;;
2022/02/05 12:58:39;;;;;;;9.40;6.30;;;;;;;20.61;30.54;100736.67;101847;1340;73578;-85
2022/02/05 13:01:32;;;;;;;10.30;6.10;;;;;;;20.60;30.48;100734.41;102098;1334;73863;-87
2022/02/05 13:05:06;;;;;;;9.90;6.10;;;;;;;20.61;30.48;100730.39;102126;1334;61155;-84
2022/02/05 13:08:05;;;;;;;8.10;5.80;;;;;;;20.61;30.55;100720.24;102195;1332;61429;-85
2022/02/05 13:11:11;;;;;;;8.80;5.60;;;;;;;20.61;30.64;100718.60;102138;1335;73080;-83
2022/02/05 13:14:37;;;;;;;9.70;6.60;;;;;;;20.61;30.49;100718.26;101853;1341;73987;-84
2022/02/05 13:18:14;;;;;;;8.90;6.10;;;;;;;20.61;30.50;100715.21;101694;1344;61465;-85
2022/02/05 13:28:09;;;;;;;8.40;5.80;;;;;;;20.61;30.56;100733.45;101386;1348;75960;-82
2022/02/05 13:34:29;;;;;;;8.30;6.10;;;;;;;20.62;30.47;100735.89;101737;1340;61659;-89
2022/02/05 13:37:26;;;;;;;9.80;5.90;;;;;;;20.62;30.56;100731.23;101787;1340;71919;-82
2022/02/05 13:40:39;;;;;;;8.20;5.60;;;;;;;20.63;30.52;100733.67;101724;1343;74969;-85
2022/02/05 13:43:45;;;;;;;8.20;5.50;;;;;;;20.63;30.66;100730.48;101553;1347;61352;-83
2022/02/05 13:46:24;;;;;;;8.40;6.10;;;;;;;20.63;30.67;100722.41;101665;1345;61334;-82
2022/02/05 13:49:39;;;;;;;10.20;6.20;;;;;;;20.63;30.65;100717.78;101820;1337;74379;-84
2022/02/05 13:52:48;;;;;;;9.30;5.90;;;;;;;20.63;30.66;100716.15;101964;1334;73763;-82
2022/02/05 13:55:42;;;;;;;8.90;6.30;;;;;;;20.64;30.62;100713.59;102637;1325;61320;-84
2022/02/05 13:58:57;;;;;;;9.40;6.10;;;;;;;20.64;30.59;100704.30;102747;1326;61354;-88
2022/02/05 14:02:14;;;;;;;10.40;6.70;;;;;;;20.64;30.59;100709.33;102701;1326;72912;-82
2022/02/05 14:08:20;;;;;;;;;;;;;;;;;;;;;
2022/02/05 14:11:22;;;;;;;7.40;5.50;;;;;;;20.63;30.72;100712.39;101759;1341;62018;-85
2022/02/05 14:14:12;;;;;;;;;;;;;;;;;;;;;
2022/02/05 14:16:53;;;;;;;9.90;6.30;;;;;;;20.65;30.69;100706.22;101646;1337;74810;-79
2022/02/05 14:20:07;;;;;;;8.90;6.20;;;;;;;20.65;30.68;100705.98;102176;1332;61255;-85
2022/02/05 14:23:16;;;;;;;;;;;;;;;;;;;;;
2022/02/05 14:26:27;;;;;;;9.00;6.30;;;;;;;20.67;30.67;100721.98;102442;1331;73955;-79
2022/02/05 14:29:21;;;;;;;8.30;5.50;;;;;;;20.67;30.74;100725.33;102160;1335;74725;-83
2022/02/05 14:32:00;;;;;;;10.10;6.10;;;;;;;20.68;30.77;100724.77;102176;1331;61240;-82
2022/02/05 14:35:00;;;;;;;9.80;6.80;;;;;;;20.69;30.71;100730.77;102335;1331;61339;-84
2022/02/05 14:40:58;;;;;;;11.40;6.30;;;;;;;20.69;30.77;100734.71;102456;1322;73539;-84
2022/02/05 14:44:05;;;;;;;9.40;6.40;;;;;;;20.70;30.75;100739.62;103604;1319;61287;-82
2022/02/05 14:46:54;;;;;;;9.10;6.30;;;;;;;20.70;30.84;100748.20;103085;1322;61338;-82
2022/02/05 14:49:40;;;;;;;10.30;6.30;;;;;;;20.71;30.78;100745.30;102975;1322;72966;-82
2022/02/05 14:52:19;;;;;;;10.10;5.90;;;;;;;20.71;30.76;100743.11;103095;1322;75602;-84
2022/02/05 14:55:24;;;;;;;9.40;6.50;;;;;;;20.72;30.79;100741.14;103117;1322;61233;-84
2022/02/05 14:58:30;;;;;;;10.40;6.30;;;;;;;20.72;30.75;100740.73;102699;1328;61650;-83
2022/02/05 15:01:26;;;;;;;10.20;6.60;;;;;;;20.72;30.81;100743.45;102727;1325;72879;-82
2022/02/05 15:04:32;;;;;;;10.60;6.40;;;;;;;20.73;30.85;100746.62;102495;1332;74836;-83
2022/02/05 15:07:20;;;;;;;10.00;6.50;;;;;;;20.73;30.83;100744.63;102035;1337;61378;-83
2022/02/05 15:10:10;;;;;;;9.20;7.20;;;;;;;20.73;30.79;100752.83;101822;1340;61221;-82
2022/02/05 15:13:29;;;;;;;;;;;;;;;;;;;;;
2022/02/05 15:16:22;;;;;;;8.70;6.40;;;;;;;20.73;30.72;100761.20;101257;1352;74606;-83
2022/02/05 15:19:30;;;;;;;9.10;6.30;;;;;;;20.75;30.81;100768.13;101370;1351;61665;-82
2022/02/05 15:22:23;;;;;;;11.50;6.90;;;;;;;20.74;30.93;100772.26;101387;1352;61350;-83
2022/02/05 15:25:38;;;;;;;10.90;6.80;;;;;;;20.75;30.73;100771.35;101105;1354;71784;-82
2022/02/05 15:28:32;;;;;;;9.90;7.00;;;;;;;20.75;30.96;100772.23;100775;1357;75047;-83
2022/02/05 15:31:38;;;;;;;;;;;;;;;;;;;;;
2022/02/05 15:34:37;;;;;;;11.20;7.20;;;;;;;20.75;30.93;100772.37;100736;1357;61277;-84
2022/02/05 15:37:44;;;;;;;11.20;7.50;;;;;;;20.75;30.77;100773.80;101352;1349;72732;-84
2022/02/05 15:44:10;;;;;;;10.30;7.30;;;;;;;20.75;30.89;100778.83;101822;1335;61373;-82
2022/02/05 15:47:15;;;;;;;10.80;7.40;;;;;;;20.75;30.92;100781.69;101872;1340;61359;-84
2022/02/05 15:50:23;;;;;;;9.10;6.80;;;;;;;20.75;30.94;100783.67;101667;1345;73965;-81
2022/02/05 15:53:13;;;;;;;11.80;7.30;;;;;;;20.74;30.90;100782.24;101579;1340;76379;-82
2022/02/05 15:56:08;;;;;;;10.50;7.50;;;;;;;20.75;30.91;100784.38;101822;1340;61354;-84
2022/02/05 15:58:47;;;;;;;11.40;7.90;;;;;;;20.75;30.91;100787.73;101718;1340;61696;-80
2022/02/05 16:01:50;;;;;;;11.00;7.40;;;;;;;20.75;30.95;100787.20;101701;1334;72984;-80
2022/02/05 16:04:58;;;;;;;12.00;7.50;;;;;;;20.75;30.95;100791.66;101747;1335;75103;-83
2022/02/05 16:07:43;;;;;;;11.00;7.90;;;;;;;20.75;31.01;100795.80;102237;1332;61299;-86
2022/02/05 16:10:52;;;;;;;14.00;8.10;;;;;;;20.76;31.01;100794.84;102495;1331;61159;-84
2022/02/05 16:14:00;;;;;;;11.70;8.10;;;;;;;20.76;31.01;100798.63;102443;1330;73032;-81
2022/02/05 16:16:46;;;;;;;14.10;8.70;;;;;;;20.75;31.02;100797.77;101902;1335;75799;-82
2022/02/05 16:19:32;;;;;;;11.50;8.10;;;;;;;20.75;31.00;100800.98;101821;1335;61893;-81
2022/02/05 16:22:11;;;;;;;;;;;;;;;;;;;;;
2022/02/05 16:25:11;;;;;;;12.90;8.70;;;;;;;20.76;31.08;100805.23;102322;1331;74024;-83
2022/02/05 16:28:06;;;;;;;12.00;8.30;;;;;;;20.75;31.03;100811.34;102603;1328;75866;-86
2022/02/05 16:30:46;;;;;;;13.60;7.90;;;;;;;20.75;31.11;100813.69;102310;1331;62459;-84
2022/02/05 16:33:48;;;;;;;10.60;7.50;;;;;;;20.75;31.06;100818.33;102429;1331;61370;-82
2022/02/05 16:36:24;;;;;;;11.90;8.50;;;;;;;20.75;31.07;100817.05;102606;1328;72900;-80
2022/02/05 16:39:43;;;;;;;;;;;;;;;;;;;;;
2022/02/05 16:43:00;;;;;;;11.20;7.60;;;;;;;20.75;31.09;100824.05;102896;1325;61277;-81
2022/02/05 16:46:10;;;;;;;12.30;7.90;;;;;;;20.74;31.13;100824.66;102740;1329;61221;-82
2022/02/05 16:49:20;;;;;;;10.90;8.10;;;;;;;20.74;31.16;100826.77;102451;1332;73330;-82
2022/02/05 16:52:06;;;;;;;11.30;8.30;;;;;;;20.74;31.12;100826.64;102040;1335;75882;-83
2022/02/05 16:55:38;;;;;;;;;;;;;;;;;;;;;
2022/02/05 16:58:40;;;;;;;13.40;8.20;;;;;;;20.74;31.17;100828.23;102257;1334;61851;-83
2022/02/05 17:01:32;;;;;;;12.20;7.90;;;;;;;20.74;31.21;100822.55;101934;1338;73459;-77
2022/02/05 17:04:31;;;;;;;10.50;7.60;;;;;;;20.74;31.19;100825.53;101754;1343;74420;-83
2022/02/05 17:07:17;;;;;;;11.40;7.90;;;;;;;20.74;31.25;100832.00;101758;1342;61299;-82
2022/02/05 17:10:25;;;;;;;11.70;7.50;;;;;;;20.74;31.24;100839.87;101787;1341;61214;-85
2022/02/05 17:13:42;;;;;;;10.60;7.10;;;;;;;20.73;31.28;100842.60;101765;1341;71744;-83
2022/02/05 17:17:01;;;;;;;;;;;;;;;;;;;;;
2022/02/05 17:20:22;;;;;;;12.10;8.10;;;;;;;20.73;31.28;100838.67;101668;1346;61363;-82
2022/02/05 17:23:20;;;;;;;;;;;;;;;;;;;;;
2022/02/05 17:26:19;;;;;;;;;;;;;;;;;;;;;
2022/02/05 17:29:26;;;;;;;11.70;7.90;;;;;;;20.74;31.38;100840.06;101769;1337;75775;-81
2022/02/05 17:32:24;;;;;;;11.40;8.40;;;;;;;20.73;31.29;100838.47;101956;1337;61273;-84
2022/02/05 17:35:31;;;;;;;;;;;;;;;;;;;;;
2022/02/05 17:38:35;;;;;;;13.70;8.90;;;;;;;20.74;31.33;100845.79;101686;1343;72859;-81
2022/02/05 17:41:30;;;;;;;12.40;8.20;;;;;;;20.74;31.37;100849.88;101672;1341;75638;-84
2022/02/05 17:44:39;;;;;;;10.90;7.90;;;;;;;20.74;31.45;100851.65;101262;1352;61357;-87
2022/02/05 17:47:46;;;;;;;13.50;8.40;;;;;;;20.75;31.38;100854.33;100596;1358;61194;-82
2022/02/05 17:50:34;;;;;;;14.50;8.80;;;;;;;20.73;31.29;100852.25;100526;1358;73733;-85
2022/02/05 17:53:22;;;;;;;;;;;;;;;;;;;;;
2022/02/05 17:56:56;;;;;;;14.70;8.70;;;;;;;20.73;31.44;100847.60;100653;1354;61246;-81
2022/02/05 17:59:30;;;;;;;12.60;9.10;;;;;;;20.73;31.45;100847.28;101086;1354;61471;-82
2022/02/05 18:02:34;;;;;;;13.50;8.80;;;;;;;20.73;31.45;100851.71;101042;1354;72979;-79
2022/02/05 18:09:24;;;;;;;13.00;8.30;;;;;;;20.73;31.35;100859.98;100927;1354;61305;-80
2022/02/05 18:12:18;;;;;;;11.80;8.50;;;;;;;20.73;31.49;100860.35;101307;1348;62418;-82
2022/02/05 18:15:05;;;;;;;12.40;8.60;;;;;;;20.73;31.34;100866.73;101625;1340;73792;-80
2022/02/05 18:18:11;;;;;;;16.00;9.30;;;;;;;20.74;31.51;100870.83;101867;1335;74918;-82
2022/02/05 18:21:02;;;;;;;11.80;8.60;;;;;;;20.73;31.47;100874.10;102427;1328;61719;-89
2022/02/05 18:23:49;;;;;;;14.30;9.10;;;;;;;20.73;31.44;100882.16;102922;1317;61546;-86
2022/02/05 18:26:44;;;;;;;14.20;9.10;;;;;;;20.73;31.44;100886.59;103951;1316;72788;-81
2022/02/05 18:29:31;;;;;;;12.60;9.10;;;;;;;20.73;31.50;100895.38;103841;1316;75669;-85
2022/02/05 18:32:28;;;;;;;;;;;;;;;;;;;;;
2022/02/05 18:35:27;;;;;;;;;;;;;;;;;;;;;
2022/02/05 18:38:13;;;;;;;14.40;9.40;;;;;;;20.73;31.47;100906.27;104096;1316;72862;-86
2022/02/05 18:41:23;;;;;;;;;;;;;;;;;;;;;